createdAt,value
2023-12-11T00:00:49.302Z,96828.25
2023-12-11T00:01:51.194Z,96820.28
2023-12-11T00:02:53.007Z,96816.53
2023-12-11T00:03:54.677Z,96820.88
2023-12-11T00:04:56.786Z,96816.94
2023-12-11T00:05:58.453Z,96819.53
2023-12-11T00:07:00.077Z,96810.84
2023-12-11T00:08:01.794Z,96809.88
2023-12-11T00:09:03.624Z,96812.03
2023-12-11T00:10:05.837Z,96807.31
2023-12-11T00:11:10.236Z,96808.78
2023-12-11T00:12:11.916Z,96798.34
2023-12-11T00:13:13.943Z,96807.91
2023-12-11T00:14:15.658Z,96803.38
2023-12-11T00:15:17.423Z,96804.72
2023-12-11T00:16:19.300Z,96814.19
2023-12-11T00:17:20.932Z,96805.72
2023-12-11T00:18:22.774Z,96798.03
2023-12-11T00:19:24.584Z,96802.56
2023-12-11T00:20:26.362Z,96804.72
2023-12-11T00:21:28.218Z,96799.97
2023-12-11T00:22:29.934Z,96801.56
2023-12-11T00:23:31.650Z,96799.50
2023-12-11T00:24:33.510Z,96805.88
2023-12-11T00:25:36.928Z,96798.44
2023-12-11T00:26:38.676Z,96812.19
2023-12-11T00:27:40.907Z,96809.25
2023-12-11T00:28:42.713Z,96812.78
2023-12-11T00:29:44.417Z,96815.53
2023-12-11T00:30:46.122Z,96811.88
2023-12-11T00:31:47.830Z,96812.97
2023-12-11T00:32:49.563Z,96810.88
2023-12-11T00:33:51.448Z,96810.38
2023-12-11T00:34:53.372Z,96810.88
2023-12-11T00:35:55.135Z,96816.19
2023-12-11T00:36:56.870Z,96815.69
2023-12-11T00:37:58.719Z,96824.13
2023-12-11T00:39:00.977Z,96823.06
2023-12-11T00:40:02.715Z,96827.00
2023-12-11T00:41:04.616Z,96829.88
2023-12-11T00:42:06.327Z,96833.41
2023-12-11T00:43:08.092Z,96826.56
2023-12-11T00:44:09.835Z,96821.88
2023-12-11T00:45:14.775Z,96819.03
2023-12-11T00:46:20.414Z,96823.06
2023-12-11T00:47:22.045Z,96820.41
2023-12-11T00:48:23.847Z,96820.47
2023-12-11T00:49:25.645Z,96817.94
2023-12-11T00:50:27.400Z,96819.09
2023-12-11T00:51:29.115Z,96818.50
2023-12-11T00:52:30.787Z,96816.22
2023-12-11T00:53:32.434Z,96813.94
2023-12-11T00:54:34.103Z,96813.03
2023-12-11T00:55:35.859Z,96812.66
2023-12-11T00:56:38.199Z,96823.16
2023-12-11T00:57:39.885Z,96825.72
2023-12-11T00:58:41.569Z,96820.97
2023-12-11T00:59:43.511Z,96829.59
2023-12-11T01:00:45.291Z,96831.03
2023-12-11T01:01:47.027Z,96826.22
2023-12-11T01:02:48.910Z,96828.19
2023-12-11T01:03:50.688Z,96832.91
2023-12-11T01:04:52.486Z,96837.44
2023-12-11T01:05:54.224Z,96834.78
2023-12-11T01:06:55.959Z,96835.69
2023-12-11T01:07:57.832Z,96836.25
2023-12-11T01:08:59.593Z,96826.69
2023-12-11T01:10:01.316Z,96828.88
2023-12-11T01:11:03.027Z,96830.56
2023-12-11T01:12:05.295Z,96831.66
2023-12-11T01:13:07.556Z,96831.78
2023-12-11T01:14:09.190Z,96829.81
2023-12-11T01:15:11.084Z,96820.97
2023-12-11T01:16:12.797Z,96832.03
2023-12-11T01:17:37.079Z,96831.84
2023-12-11T01:18:36.345Z,96826.63
2023-12-11T01:19:38.190Z,96825.16
2023-12-11T01:20:40.774Z,96824.41
2023-12-11T01:21:42.500Z,96823.03
2023-12-11T01:22:44.268Z,96823.94
2023-12-11T01:23:45.938Z,96823.03
2023-12-11T01:24:47.670Z,96822.84
2023-12-11T01:25:49.335Z,96822.94
2023-12-11T01:26:50.966Z,96821.84
2023-12-11T01:27:52.646Z,96816.16
2023-12-11T01:28:54.357Z,96819.50
2023-12-11T01:29:56.011Z,96815.97
2023-12-11T01:30:57.676Z,96815.06
2023-12-11T01:31:59.340Z,96814.41
2023-12-11T01:33:01.086Z,96817.84
2023-12-11T01:34:03.093Z,96816.75
2023-12-11T01:35:05.101Z,96814.59
2023-12-11T01:36:07.118Z,96817.16
2023-12-11T01:37:08.904Z,96817.84
2023-12-11T01:38:10.949Z,96809.97
2023-12-11T01:39:12.652Z,96811.34
2023-12-11T01:40:14.604Z,96810.84
2023-12-11T01:41:16.348Z,96814.97
2023-12-11T01:42:18.282Z,96814.31
2023-12-11T01:43:21.541Z,96817.56
2023-12-11T01:44:23.322Z,96814.69
2023-12-11T01:45:24.987Z,96819.28
2023-12-11T01:46:27.053Z,96813.09
2023-12-11T01:47:29.133Z,96814.84
2023-12-11T01:48:32.225Z,96820.09
2023-12-11T01:49:35.915Z,96821.47
2023-12-11T01:50:39.657Z,96815.47
2023-12-11T01:51:42.988Z,96812.13
2023-12-11T01:52:44.771Z,96814.69
2023-12-11T01:53:49.379Z,96812.03
2023-12-11T01:54:51.112Z,96810.34
2023-12-11T01:55:52.988Z,96813.38
2023-12-11T01:56:54.870Z,96812.19
2023-12-11T01:57:57.693Z,96815.34
2023-12-11T01:58:59.430Z,96825.59
2023-12-11T02:00:01.548Z,96830.28
2023-12-11T02:01:03.417Z,96824.19
2023-12-11T02:02:05.194Z,96828.31
2023-12-11T02:03:06.825Z,96827.41
2023-12-11T02:04:10.085Z,96831.03
2023-12-11T02:05:12.629Z,96826.69
2023-12-11T02:06:14.412Z,96832.81
2023-12-11T02:07:17.488Z,96837.53
2023-12-11T02:08:19.152Z,96839.13
2023-12-11T02:09:20.774Z,96835.97
2023-12-11T02:10:22.500Z,96837.53
2023-12-11T02:11:25.495Z,96843.34
2023-12-11T02:12:27.131Z,96842.25
2023-12-11T02:13:28.824Z,96850.13
2023-12-11T02:14:30.590Z,96847.97
2023-12-11T02:15:39.149Z,96851.69
2023-12-11T02:16:40.865Z,96844.81
2023-12-11T02:17:43.563Z,96849.94
2023-12-11T02:18:45.773Z,96855.84
2023-12-11T02:19:47.684Z,96842.75
2023-12-11T02:20:49.440Z,96851.69
2023-12-11T02:21:51.117Z,96847.78
2023-12-11T02:22:53.048Z,96846.78
2023-12-11T02:24:05.839Z,96845.19
2023-12-11T02:25:08.219Z,96844.66
2023-12-11T02:26:15.440Z,96848.00
2023-12-11T02:27:17.489Z,96840.75
2023-12-11T02:28:19.144Z,96837.59
2023-12-11T02:29:21.342Z,96841.75
2023-12-11T02:30:23.003Z,96845.66
2023-12-11T02:31:24.663Z,96845.09
2023-12-11T02:32:26.443Z,96850.59
2023-12-11T02:33:28.130Z,96848.44
2023-12-11T02:34:29.987Z,96841.34
2023-12-11T02:35:32.748Z,96846.25
2023-12-11T02:36:34.393Z,96847.38
2023-12-11T02:37:36.025Z,96836.66
2023-12-11T02:38:37.769Z,96852.91
2023-12-11T02:39:39.444Z,96841.25
2023-12-11T02:40:41.112Z,96834.78
2023-12-11T02:41:42.782Z,96840.72
2023-12-11T02:42:50.638Z,96836.06
2023-12-11T02:43:52.290Z,96831.41
2023-12-11T02:44:53.908Z,96842.00
2023-12-11T02:45:55.667Z,96839.28
2023-12-11T02:46:57.371Z,96839.84
2023-12-11T02:48:04.093Z,96846.31
2023-12-11T02:49:06.578Z,96845.84
2023-12-11T02:50:08.616Z,96841.91
2023-12-11T02:51:10.413Z,96846.19
2023-12-11T02:52:12.112Z,96856.00
2023-12-11T02:53:13.805Z,96849.13
2023-12-11T02:54:15.457Z,96854.44
2023-12-11T02:55:17.260Z,96850.94
2023-12-11T02:56:19.006Z,96853.53
2023-12-11T02:57:20.657Z,96844.94
2023-12-11T02:58:22.385Z,96843.44
2023-12-11T02:59:24.013Z,96848.31
2023-12-11T03:00:26.449Z,96851.06
2023-12-11T03:01:28.235Z,96847.22
2023-12-11T03:02:29.895Z,96850.03
2023-12-11T03:03:31.575Z,96842.72
2023-12-11T03:04:33.353Z,96851.59
2023-12-11T03:05:35.252Z,96845.13
2023-12-11T03:06:37.051Z,96853.16
2023-12-11T03:07:38.676Z,96854.91
2023-12-11T03:08:40.776Z,96856.47
2023-12-11T03:09:42.441Z,96854.75
2023-12-11T03:10:46.084Z,96848.69
2023-12-11T03:11:49.035Z,96854.91
2023-12-11T03:12:50.740Z,96853.84
2023-12-11T03:13:52.432Z,96860.44
2023-12-11T03:14:54.039Z,96855.06
2023-12-11T03:15:55.775Z,96852.88
2023-12-11T03:16:57.531Z,96858.97
2023-12-11T03:18:00.205Z,96859.41
2023-12-11T03:19:02.030Z,96866.69
2023-12-11T03:20:06.573Z,96868.38
2023-12-11T03:21:08.566Z,96868.19
2023-12-11T03:22:10.254Z,96873.41
2023-12-11T03:23:12.071Z,96869.38
2023-12-11T03:24:13.670Z,96863.47
2023-12-11T03:25:15.496Z,96868.69
2023-12-11T03:26:17.212Z,96864.38
2023-12-11T03:27:18.988Z,96865.38
2023-12-11T03:28:20.705Z,96867.94
2023-12-11T03:29:22.357Z,96865.19
2023-12-11T03:30:24.100Z,96874.22
2023-12-11T03:31:25.714Z,96873.25
2023-12-11T03:32:27.400Z,96864.88
2023-12-11T03:33:29.008Z,96866.34
2023-12-11T03:34:30.882Z,96869.25
2023-12-11T03:35:32.550Z,96869.00
2023-12-11T03:36:34.248Z,96866.34
2023-12-11T03:37:35.894Z,96869.25
2023-12-11T03:38:37.517Z,96869.00
2023-12-11T03:39:39.349Z,96867.81
2023-12-11T03:40:45.134Z,96868.69
2023-12-11T03:41:46.916Z,96864.31
2023-12-11T03:42:48.723Z,96865.53
2023-12-11T03:43:50.393Z,96860.78
2023-12-11T03:44:52.167Z,96859.78
2023-12-11T03:45:57.237Z,96867.25
2023-12-11T03:46:59.435Z,96860.34
2023-12-11T03:48:01.211Z,96855.97
2023-12-11T03:49:03.122Z,96860.03
2023-12-11T03:50:05.249Z,96860.63
2023-12-11T03:51:07.067Z,96853.16
2023-12-11T03:52:08.706Z,96857.38
2023-12-11T03:53:11.565Z,96860.03
2023-12-11T03:54:13.668Z,96858.56
2023-12-11T03:55:15.521Z,96861.97
2023-12-11T03:56:17.207Z,96865.34
2023-12-11T03:57:18.931Z,96861.28
2023-12-11T03:58:20.690Z,96853.47
2023-12-11T03:59:24.176Z,96861.16
2023-12-11T04:00:25.886Z,96861.94
2023-12-11T04:01:27.712Z,96866.66
2023-12-11T04:02:29.576Z,96860.78
2023-12-11T04:03:32.745Z,96864.44
2023-12-11T04:04:34.690Z,96871.22
2023-12-11T04:05:36.448Z,96867.38
2023-12-11T04:06:38.253Z,96872.03
2023-12-11T04:07:39.933Z,96867.22
2023-12-11T04:08:42.191Z,96868.81
2023-12-11T04:09:43.971Z,96876.28
2023-12-11T04:10:45.673Z,96872.75
2023-12-11T04:11:47.350Z,96869.69
2023-12-11T04:12:49.107Z,96864.78
2023-12-11T04:13:50.911Z,96876.78
2023-12-11T04:14:52.585Z,96869.53
2023-12-11T04:15:54.441Z,96869.41
2023-12-11T04:16:56.132Z,96869.81
2023-12-11T04:17:57.827Z,96872.59
2023-12-11T04:19:00.825Z,96859.34
2023-12-11T04:20:03.284Z,96874.69
2023-12-11T04:21:05.830Z,96869.25
2023-12-11T04:22:07.504Z,96862.19
2023-12-11T04:23:09.210Z,96854.97
2023-12-11T04:24:13.307Z,96861.25
2023-12-11T04:25:16.596Z,96862.63
2023-12-11T04:26:18.293Z,96860.47
2023-12-11T04:27:19.979Z,96857.72
2023-12-11T04:28:22.768Z,96862.47
2023-12-11T04:29:24.441Z,96866.59
2023-12-11T04:30:26.076Z,96868.59
2023-12-11T04:31:27.770Z,96870.59
2023-12-11T04:32:29.550Z,96879.47
2023-12-11T04:33:34.188Z,96872.97
2023-12-11T04:34:36.162Z,96881.44
2023-12-11T04:35:37.800Z,96875.94
2023-12-11T04:36:42.675Z,96871.50
2023-12-11T04:37:44.441Z,96874.16
2023-12-11T04:38:46.170Z,96866.13
2023-12-11T04:39:47.979Z,96873.38
2023-12-11T04:40:49.664Z,96869.66
2023-12-11T04:41:51.303Z,96865.81
2023-12-11T04:42:53.025Z,96863.03
2023-12-11T04:43:54.702Z,96866.84
2023-12-11T04:44:56.409Z,96866.25
2023-12-11T04:45:58.098Z,96866.47
2023-12-11T04:47:00.411Z,96869.84
2023-12-11T04:48:02.371Z,96871.03
2023-12-11T04:49:04.399Z,96860.81
2023-12-11T04:50:06.758Z,96866.81
2023-12-11T04:51:08.519Z,96869.06
2023-12-11T04:52:10.268Z,96871.06
2023-12-11T04:53:12.069Z,96867.53
2023-12-11T04:54:14.047Z,96871.47
2023-12-11T04:55:15.818Z,96875.91
2023-12-11T04:56:17.603Z,96880.13
2023-12-11T04:57:19.334Z,96877.34
2023-12-11T04:58:21.614Z,96873.63
2023-12-11T04:59:23.275Z,96878.38
2023-12-11T05:00:26.172Z,96883.38
2023-12-11T05:01:28.403Z,96870.88
2023-12-11T05:02:30.647Z,96875.38
2023-12-11T05:03:32.507Z,96869.09
2023-12-11T05:04:34.327Z,96868.53
2023-12-11T05:05:37.287Z,96864.75
2023-12-11T05:06:38.906Z,96861.63
2023-12-11T05:07:40.723Z,96862.09
2023-12-11T05:08:42.343Z,96855.41
2023-12-11T05:09:44.047Z,96857.91
2023-12-11T05:10:45.780Z,96853.34
2023-12-11T05:11:47.484Z,96850.69
2023-12-11T05:12:49.246Z,96853.34
2023-12-11T05:13:50.938Z,96854.91
2023-12-11T05:14:52.639Z,96857.59
2023-12-11T05:15:54.386Z,96863.88
2023-12-11T05:16:56.131Z,96857.78
2023-12-11T05:17:58.065Z,96856.59
2023-12-11T05:18:59.831Z,96858.38
2023-12-11T05:20:01.631Z,96857.97
2023-12-11T05:21:08.260Z,96862.81
2023-12-11T05:22:09.996Z,96860.06
2023-12-11T05:23:11.666Z,96861.81
2023-12-11T05:24:14.057Z,96866.25
2023-12-11T05:25:15.858Z,96865.38
2023-12-11T05:26:20.950Z,96865.38
2023-12-11T05:27:22.685Z,96862.41
2023-12-11T05:28:24.336Z,96864.06
2023-12-11T05:29:26.073Z,96864.06
2023-12-11T05:30:27.667Z,96855.53
2023-12-11T05:31:31.021Z,96860.25
2023-12-11T05:32:33.649Z,96858.88
2023-12-11T05:33:35.577Z,96859.16
2023-12-11T05:34:37.785Z,96863.13
2023-12-11T05:35:39.551Z,96860.63
2023-12-11T05:36:41.541Z,96858.47
2023-12-11T05:37:43.201Z,96850.50
2023-12-11T05:38:44.834Z,96852.59
2023-12-11T05:39:57.232Z,96856.88
2023-12-11T05:41:08.251Z,96857.69
2023-12-11T05:42:09.963Z,96855.03
2023-12-11T05:43:11.656Z,96853.94
2023-12-11T05:44:13.280Z,96859.75
2023-12-11T05:45:15.357Z,96867.13
2023-12-11T05:46:17.047Z,96865.66
2023-12-11T05:47:18.728Z,96870.09
2023-12-11T05:48:20.502Z,96870.38
2023-12-11T05:49:22.301Z,96866.75
2023-12-11T05:50:23.996Z,96863.88
2023-12-11T05:51:25.969Z,96862.59
2023-12-11T05:52:27.751Z,96874.59
2023-12-11T05:53:29.348Z,96869.88
2023-12-11T05:54:31.024Z,96866.53
2023-12-11T05:55:32.682Z,96872.66
2023-12-11T05:56:34.480Z,96870.28
2023-12-11T05:57:36.326Z,96868.59
2023-12-11T05:58:38.047Z,96868.13
2023-12-11T05:59:39.756Z,96872.03
2023-12-11T06:00:41.542Z,96870.22
2023-12-11T06:01:43.386Z,96877.75
2023-12-11T06:02:45.258Z,96875.19
2023-12-11T06:03:47.166Z,96873.22
2023-12-11T06:04:48.866Z,96877.91
2023-12-11T06:05:52.469Z,96880.94
2023-12-11T06:06:54.165Z,96880.84
2023-12-11T06:07:55.870Z,96884.53
2023-12-11T06:08:57.577Z,96882.84
2023-12-11T06:09:59.286Z,96883.84
2023-12-11T06:11:00.996Z,96888.06
2023-12-11T06:12:02.749Z,96891.19
2023-12-11T06:13:04.457Z,96889.56
2023-12-11T06:14:07.361Z,96892.69
2023-12-11T06:15:09.441Z,96892.13
2023-12-11T06:16:12.155Z,96890.44
2023-12-11T06:17:13.876Z,96887.78
2023-12-11T06:18:15.921Z,96884.63
2023-12-11T06:19:17.744Z,96883.66
2023-12-11T06:20:19.444Z,96891.44
2023-12-11T06:21:22.113Z,96892.31
2023-12-11T06:22:23.806Z,96890.91
2023-12-11T06:23:25.959Z,96881.63
2023-12-11T06:24:27.659Z,96893.66
2023-12-11T06:25:29.353Z,96887.56
2023-12-11T06:26:32.647Z,96897.81
2023-12-11T06:27:34.462Z,96897.28
2023-12-11T06:28:36.140Z,96901.81
2023-12-11T06:29:39.468Z,96900.53
2023-12-11T06:30:41.223Z,96913.38
2023-12-11T06:31:43.033Z,96907.50
2023-12-11T06:32:44.764Z,96916.38
2023-12-11T06:33:46.550Z,96919.94
2023-12-11T06:34:48.509Z,96911.34
2023-12-11T06:35:50.335Z,96920.19
2023-12-11T06:36:52.055Z,96916.38
2023-12-11T06:37:54.036Z,96920.50
2023-12-11T06:38:56.016Z,96925.16
2023-12-11T06:39:57.806Z,96921.03
2023-12-11T06:40:59.474Z,96931.47
2023-12-11T06:42:01.124Z,96924.00
2023-12-11T06:43:02.792Z,96917.13
2023-12-11T06:44:04.719Z,96917.81
2023-12-11T06:45:09.828Z,96920.28
2023-12-11T06:46:13.082Z,96915.16
2023-12-11T06:47:14.936Z,96920.38
2023-12-11T06:48:16.676Z,96922.66
2023-12-11T06:49:18.532Z,96918.31
2023-12-11T06:50:21.129Z,96915.56
2023-12-11T06:51:24.028Z,96915.94
2023-12-11T06:52:26.560Z,96925.97
2023-12-11T06:53:28.239Z,96910.25
2023-12-11T06:54:29.934Z,96910.44
2023-12-11T06:55:31.644Z,96917.69
2023-12-11T06:56:33.396Z,96920.75
2023-12-11T06:57:35.045Z,96915.03
2023-12-11T06:58:36.777Z,96925.34
2023-12-11T06:59:38.785Z,96928.00
2023-12-11T07:00:40.551Z,96940.44
2023-12-11T07:01:43.777Z,96938.56
2023-12-11T07:02:46.110Z,96937.19
2023-12-11T07:03:49.666Z,96944.47
2023-12-11T07:04:51.668Z,96939.53
2023-12-11T07:05:53.789Z,96951.47
2023-12-11T07:06:55.664Z,96949.00
2023-12-11T07:07:57.498Z,96945.44
2023-12-11T07:09:00.691Z,96949.25
2023-12-11T07:10:05.847Z,96945.59
2023-12-11T07:11:07.628Z,96949.38
2023-12-11T07:12:09.589Z,96948.31
2023-12-11T07:13:11.657Z,96947.09
2023-12-11T07:14:13.553Z,96952.53
2023-12-11T07:15:15.363Z,96957.81
2023-12-11T07:16:17.198Z,96957.38
2023-12-11T07:17:18.962Z,96958.16
2023-12-11T07:18:21.914Z,96958.53
2023-12-11T07:19:23.792Z,96960.91
2023-12-11T07:20:25.577Z,96963.72
2023-12-11T07:21:27.833Z,96968.63
2023-12-11T07:22:31.570Z,96966.94
2023-12-11T07:23:33.219Z,96966.50
2023-12-11T07:24:36.573Z,96963.22
2023-12-11T07:25:38.895Z,96971.38
2023-12-11T07:26:40.672Z,96950.69
2023-12-11T07:27:44.231Z,96956.03
2023-12-11T07:28:45.941Z,96963.06
2023-12-11T07:29:47.563Z,96959.66
2023-12-11T07:30:49.262Z,96959.28
2023-12-11T07:31:50.999Z,96961.16
2023-12-11T07:32:52.846Z,96961.94
2023-12-11T07:33:57.049Z,96958.66
2023-12-11T07:34:59.219Z,96954.03
2023-12-11T07:36:00.959Z,96962.97
2023-12-11T07:37:02.716Z,96970.84
2023-12-11T07:38:04.709Z,96972.66
2023-12-11T07:39:07.252Z,96967.72
2023-12-11T07:40:09.715Z,96964.47
2023-12-11T07:41:12.678Z,96963.56
2023-12-11T07:42:15.322Z,96967.81
2023-12-11T07:43:16.936Z,96958.56
2023-12-11T07:44:19.387Z,96963.16
2023-12-11T07:45:22.179Z,96968.84
2023-12-11T07:46:24.016Z,96964.28
2023-12-11T07:47:25.833Z,96967.28
2023-12-11T07:48:27.801Z,96959.22
2023-12-11T07:49:29.647Z,96963.16
2023-12-11T07:50:31.456Z,96966.94
2023-12-11T07:51:33.117Z,96967.25
2023-12-11T07:52:34.801Z,96967.09
2023-12-11T07:53:36.541Z,96955.91
2023-12-11T07:54:39.996Z,96964.38
2023-12-11T07:55:41.720Z,96960.31
2023-12-11T07:56:44.968Z,96960.47
2023-12-11T07:57:46.826Z,96964.13
2023-12-11T07:58:48.681Z,96968.69
2023-12-11T07:59:50.325Z,96966.50
2023-12-11T08:00:52.596Z,96963.53
2023-12-11T08:01:54.486Z,96972.47
2023-12-11T08:02:57.489Z,96973.13
2023-12-11T08:03:59.658Z,96976.91
2023-12-11T08:05:01.468Z,96974.88
2023-12-11T08:06:04.098Z,96975.50
2023-12-11T08:07:05.933Z,96971.88
2023-12-11T08:08:07.592Z,96979.25
2023-12-11T08:09:12.893Z,96982.06
2023-12-11T08:10:14.678Z,96979.88
2023-12-11T08:11:18.702Z,96979.53
2023-12-11T08:12:20.500Z,96971.50
2023-12-11T08:13:22.176Z,96977.78
2023-12-11T08:14:23.859Z,96972.44
2023-12-11T08:15:25.591Z,96981.88
2023-12-11T08:16:27.826Z,96962.19
2023-12-11T08:17:29.742Z,96969.22
2023-12-11T08:18:33.404Z,96966.50
2023-12-11T08:19:35.244Z,96968.25
2023-12-11T08:20:37.014Z,96972.00
2023-12-11T08:21:38.672Z,96968.97
2023-12-11T08:22:40.375Z,96968.19
2023-12-11T08:23:45.119Z,96966.00
2023-12-11T08:24:47.029Z,96962.47
2023-12-11T08:25:48.720Z,96967.06
2023-12-11T08:26:50.405Z,96969.94
2023-12-11T08:27:52.101Z,96963.97
2023-12-11T08:28:53.747Z,96969.59
2023-12-11T08:29:55.414Z,96969.72
2023-12-11T08:30:57.788Z,96971.22
2023-12-11T08:32:00.951Z,96969.28
2023-12-11T08:33:02.813Z,96966.56
2023-12-11T08:34:04.516Z,96966.38
2023-12-11T08:35:06.969Z,96962.38
2023-12-11T08:36:09.183Z,96969.13
2023-12-11T08:37:12.460Z,96962.66
2023-12-11T08:38:17.363Z,96963.53
2023-12-11T08:39:19.037Z,96966.03
2023-12-11T08:40:21.731Z,96961.41
2023-12-11T08:41:23.481Z,96963.13
2023-12-11T08:42:25.096Z,96961.78
2023-12-11T08:43:27.617Z,96963.00
2023-12-11T08:44:29.366Z,96959.53
2023-12-11T08:45:31.035Z,96957.97
2023-12-11T08:46:32.964Z,96947.56
2023-12-11T08:47:38.126Z,96955.16
2023-12-11T08:48:40.999Z,96959.41
2023-12-11T08:49:44.114Z,96954.63
2023-12-11T08:50:46.199Z,96955.22
2023-12-11T08:51:47.888Z,96945.19
2023-12-11T08:52:49.533Z,96956.69
2023-12-11T08:53:51.178Z,96958.53
2023-12-11T08:54:52.888Z,96952.81
2023-12-11T08:55:55.522Z,96954.00
2023-12-11T08:56:57.143Z,96949.81
2023-12-11T08:57:59.029Z,96957.34
2023-12-11T08:59:01.630Z,96950.72
2023-12-11T09:00:06.775Z,96947.59
2023-12-11T09:01:08.695Z,96946.16
2023-12-11T09:02:10.435Z,96949.19
2023-12-11T09:03:12.690Z,96943.28
2023-12-11T09:04:14.434Z,96947.88
2023-12-11T09:05:16.667Z,96948.63
2023-12-11T09:06:18.352Z,96945.44
2023-12-11T09:07:20.319Z,96940.53
2023-12-11T09:08:22.772Z,96943.28
2023-12-11T09:09:24.526Z,96935.78
2023-12-11T09:10:26.385Z,96935.97
2023-12-11T09:11:28.163Z,96936.88
2023-12-11T09:12:33.439Z,96939.28
2023-12-11T09:13:37.955Z,96932.66
2023-12-11T09:14:39.850Z,96934.81
2023-12-11T09:15:41.523Z,96932.50
2023-12-11T09:16:43.238Z,96925.00
2023-12-11T09:17:45.022Z,96925.25
2023-12-11T09:18:47.006Z,96924.09
2023-12-11T09:19:54.863Z,96913.34
2023-12-11T09:20:57.731Z,96917.19
2023-12-11T09:21:59.530Z,96912.88
2023-12-11T09:23:01.190Z,96908.94
2023-12-11T09:24:03.012Z,96902.28
2023-12-11T09:25:05.271Z,96896.03
2023-12-11T09:26:06.940Z,96897.41
2023-12-11T09:27:08.718Z,96890.28
2023-12-11T09:28:10.709Z,96890.69
2023-12-11T09:29:12.551Z,96886.66
2023-12-11T09:30:14.417Z,96882.75
2023-12-11T09:31:20.007Z,96879.28
2023-12-11T09:32:21.735Z,96879.53
2023-12-11T09:33:23.693Z,96880.91
2023-12-11T09:34:25.821Z,96877.09
2023-12-11T09:35:29.082Z,96882.25
2023-12-11T09:36:30.916Z,96878.69
2023-12-11T09:37:32.785Z,96876.00
2023-12-11T09:38:34.546Z,96871.31
2023-12-11T09:39:36.327Z,96873.69
2023-12-11T09:40:37.960Z,96868.78
2023-12-11T09:41:40.620Z,96866.47
2023-12-11T09:42:44.397Z,96866.13
2023-12-11T09:43:47.471Z,96858.06
2023-12-11T09:44:49.361Z,96860.00
2023-12-11T09:45:52.847Z,96868.09
2023-12-11T09:47:02.293Z,96861.44
2023-12-11T09:48:11.494Z,96870.28
2023-12-11T09:49:17.844Z,96868.53
2023-12-11T09:50:20.700Z,96870.00
2023-12-11T09:51:22.797Z,96866.44
2023-12-11T09:52:24.882Z,96856.75
2023-12-11T09:53:27.440Z,96865.59
2023-12-11T09:54:29.208Z,96855.09
2023-12-11T09:55:37.417Z,96851.50
2023-12-11T09:56:40.366Z,96853.97
2023-12-11T09:57:42.979Z,96853.09
2023-12-11T09:58:46.036Z,96843.59
2023-12-11T09:59:49.211Z,96841.13
2023-12-11T10:00:51.093Z,96839.69
2023-12-11T10:01:53.409Z,96832.06
2023-12-11T10:02:56.045Z,96837.00
2023-12-11T10:03:57.826Z,96831.41
2023-12-11T10:05:08.141Z,96834.06
2023-12-11T10:06:09.982Z,96832.72
2023-12-11T10:07:12.518Z,96828.91
2023-12-11T10:08:17.339Z,96826.38
2023-12-11T10:09:36.037Z,96828.25
2023-12-11T10:10:39.798Z,96821.66
2023-12-11T10:11:41.526Z,96817.19
2023-12-11T10:12:44.086Z,96815.94
2023-12-11T10:13:47.104Z,96813.03
2023-12-11T10:15:03.773Z,96807.34
2023-12-11T10:16:06.898Z,96809.69
2023-12-11T10:17:18.937Z,96805.44
2023-12-11T10:18:20.728Z,96801.06
2023-12-11T10:19:35.116Z,96799.63
2023-12-11T10:20:41.848Z,96801.31
2023-12-11T10:21:43.785Z,96803.22
2023-12-11T10:22:45.775Z,96799.75
2023-12-11T10:24:17.161Z,96796.94
2023-12-11T10:25:29.056Z,96810.44
2023-12-11T10:26:37.929Z,96802.94
2023-12-11T10:27:39.734Z,96803.25
2023-12-11T10:28:42.043Z,96810.13
2023-12-11T10:29:43.771Z,96800.72
2023-12-11T10:30:48.456Z,96804.97
2023-12-11T10:31:51.395Z,96803.41
2023-12-11T10:33:02.000Z,96798.59
2023-12-11T10:34:04.908Z,96793.34
2023-12-11T10:35:07.851Z,96795.13
2023-12-11T10:36:14.850Z,96795.78
2023-12-11T10:37:16.711Z,96790.53
2023-12-11T10:39:08.681Z,96796.53
2023-12-11T10:41:06.487Z,96796.00
2023-12-11T10:42:18.343Z,96797.31
2023-12-11T10:43:20.753Z,96793.09
2023-12-11T10:44:42.759Z,96795.81
2023-12-11T10:45:51.640Z,96785.66
2023-12-11T10:46:58.494Z,96787.56
2023-12-11T10:48:01.196Z,96779.72
2023-12-11T10:49:03.128Z,96778.06
2023-12-11T10:50:08.895Z,96780.84
2023-12-11T10:51:11.539Z,96783.75
2023-12-11T10:52:13.675Z,96783.31
2023-12-11T10:53:16.759Z,96772.78
2023-12-11T10:54:21.190Z,96778.41
2023-12-11T10:55:23.003Z,96774.03
2023-12-11T10:56:27.458Z,96770.47
2023-12-11T10:57:32.309Z,96776.41
2023-12-11T10:58:34.145Z,96777.72
2023-12-11T10:59:36.393Z,96776.38
2023-12-11T11:00:39.800Z,96778.59
2023-12-11T11:01:46.039Z,96773.91
2023-12-11T11:02:52.381Z,96776.38
2023-12-11T11:03:54.250Z,96774.75
2023-12-11T11:04:57.707Z,96779.13
2023-12-11T11:06:00.762Z,96773.63
2023-12-11T11:07:18.391Z,96771.81
2023-12-11T11:08:53.435Z,96768.13
2023-12-11T11:10:10.541Z,96767.63
2023-12-11T11:11:25.219Z,96771.09
2023-12-11T11:12:33.315Z,96764.41
2023-12-11T11:13:43.560Z,96770.09
2023-12-11T11:14:48.571Z,96767.63
2023-12-11T11:15:54.598Z,96764.72
2023-12-11T11:16:58.139Z,96761.34
2023-12-11T11:18:06.826Z,96752.94
2023-12-11T11:19:10.140Z,96759.41
2023-12-11T11:20:19.158Z,96745.75
2023-12-11T11:21:22.959Z,96755.91
2023-12-11T11:22:31.695Z,96750.97
2023-12-11T11:23:48.905Z,96754.13
2023-12-11T11:24:50.741Z,96751.44
2023-12-11T11:25:53.554Z,96751.75
2023-12-11T11:26:55.838Z,96759.75
2023-12-11T11:27:58.377Z,96748.25
2023-12-11T11:29:00.458Z,96746.69
2023-12-11T11:30:02.172Z,96748.41
2023-12-11T11:31:07.412Z,96740.19
2023-12-11T11:32:13.747Z,96739.31
2023-12-11T11:33:16.016Z,96742.13
2023-12-11T11:34:43.057Z,96743.03
2023-12-11T11:35:44.787Z,96736.34
2023-12-11T11:36:49.560Z,96735.72
2023-12-11T11:37:51.589Z,96729.31
2023-12-11T11:39:03.657Z,96731.22
2023-12-11T11:40:07.010Z,96731.63
2023-12-11T11:41:31.219Z,96715.97
2023-12-11T11:42:34.908Z,96715.75
2023-12-11T11:43:36.531Z,96709.19
2023-12-11T11:44:38.364Z,96704.94
2023-12-11T11:45:40.166Z,96709.84
2023-12-11T11:46:57.296Z,96707.16
2023-12-11T11:47:59.086Z,96701.13
2023-12-11T11:49:00.783Z,96704.22
2023-12-11T11:50:19.671Z,96703.56
2023-12-11T11:51:22.844Z,96698.84
2023-12-11T11:52:29.157Z,96704.69
2023-12-11T11:53:30.972Z,96699.22
2023-12-11T11:54:34.088Z,96696.81
2023-12-11T11:55:39.794Z,96697.63
2023-12-11T11:56:47.427Z,96697.03
2023-12-11T11:57:49.083Z,96692.91
2023-12-11T11:58:50.775Z,96701.41
2023-12-11T11:59:54.474Z,96694.22
2023-12-11T12:01:06.634Z,96704.84
2023-12-11T12:02:08.446Z,96698.44
2023-12-11T12:03:10.200Z,96701.13
2023-12-11T12:04:12.986Z,96699.16
2023-12-11T12:05:14.735Z,96694.06
2023-12-11T12:06:18.214Z,96691.13
2023-12-11T12:07:20.601Z,96690.25
2023-12-11T12:08:22.324Z,96694.63
2023-12-11T12:09:24.699Z,96692.94
2023-12-11T12:10:27.011Z,96690.28
2023-12-11T12:11:31.062Z,96691.06
2023-12-11T12:12:33.320Z,96687.81
2023-12-11T12:13:35.683Z,96687.41
2023-12-11T12:14:37.499Z,96694.44
2023-12-11T12:15:46.074Z,96690.00
2023-12-11T12:16:48.008Z,96688.59
2023-12-11T12:17:50.069Z,96681.00
2023-12-11T12:18:51.893Z,96678.06
2023-12-11T12:19:53.726Z,96671.91
2023-12-11T12:21:05.876Z,96674.19